Maryville, Iowa
Current Conditions -  °F | °C
As of 7:15 PM on Sunday 21 Dec 2014 (Local Time) from KOLZ Reporting Station
Overcast Overcast  
Wind Chill: 29°   Ceiling: 400
Heat Index: 37°   Visibility: NA
Dew Point: 37°   Wind: 15mph
Humidity: 100%   Direction: 150°SSE
Pressure: 29.85"   Gusts: NA
Location:  42.7309°N, 91.6667°W
Report Text: KOLZ 220115Z AUTO 15013KT BKN004 OVC007 03/03 A2985 RMK AO2
Loading
Personal Weather Stations






























Interactive Weather Map New forecast layout! Learn more

10-Day Weather Forecast

Advertisements
Track Severe Weather on mobile